Time;durP1;ratioP1;P1;durP2;ratioP2;P2;SDS_P1;SDS_P2;PMS_P1;PMS_P2;Temp;Humidity;BMP_temperature;BMP_pressure;BME280_temperature;BME280_humidity;BME280_pressure;Samples;Min_cycle;Max_cycle;Signal;HPM_P1;HPM_P2
2022/05/12 00:02:23;;;;;;;8.17;4.20;;;19.60;99.90;;;;;;5039838;28;20493;-82
2022/05/12 00:05:08;;;;;;;5.30;4.80;;;19.60;99.90;;;;;;5024782;28;20387;-82
2022/05/12 00:07:53;;;;;;;6.97;4.33;;;19.50;99.90;;;;;;5025615;28;20479;-82
2022/05/12 00:10:38;;;;;;;4.90;4.50;;;19.40;99.90;;;;;;5040437;28;20441;-82
2022/05/12 00:13:22;;;;;;;6.63;3.93;;;19.50;99.90;;;;;;5040924;28;20391;-82
2022/05/12 00:16:08;;;;;;;6.50;4.70;;;19.50;99.90;;;;;;5042235;28;20390;-82
2022/05/12 00:18:52;;;;;;;4.87;4.47;;;19.50;99.90;;;;;;5044285;28;20410;-81
2022/05/12 00:21:38;;;;;;;4.73;4.33;;;19.50;99.90;;;;;;5051961;28;20438;-80
2022/05/12 00:24:23;;;;;;;7.00;5.13;;;19.50;99.90;;;;;;5052411;28;20379;-80
2022/05/12 00:27:09;;;;;;;5.13;4.10;;;19.20;99.90;;;;;;5042815;28;20437;-82
2022/05/12 00:29:54;;;;;;;5.80;4.83;;;19.50;99.90;;;;;;5040887;28;20382;-82
2022/05/12 00:32:43;;;;;;;4.43;4.13;;;19.70;99.90;;;;;;5041027;28;20739;-82
2022/05/12 00:35:28;;;;;;;6.63;5.57;;;19.60;99.90;;;;;;5011508;28;20938;-82
2022/05/12 00:38:13;;;;;;;4.33;4.00;;;19.70;99.90;;;;;;5024557;28;20438;-82
2022/05/12 00:40:58;;;;;;;5.13;4.63;;;19.70;99.90;;;;;;5039123;28;20520;-82
2022/05/12 00:43:48;;;;;;;5.13;4.27;;;19.90;99.90;;;;;;5039063;28;20386;-82
2022/05/12 00:46:36;;;;;;;4.60;4.20;;;19.90;99.90;;;;;;5039563;28;20398;-82
2022/05/12 00:49:25;;;;;;;6.13;4.97;;;19.70;99.90;;;;;;5024481;28;20383;-82
2022/05/12 00:52:16;;;;;;;7.73;4.60;;;19.50;99.90;;;;;;5039133;28;20418;-82
2022/05/12 00:55:08;;;;;;;4.50;4.10;;;19.50;99.90;;;;;;5039067;28;20391;-81
2022/05/12 00:57:55;;;;;;;4.20;3.80;;;19.70;99.90;;;;;;5040331;28;20409;-81
2022/05/12 01:00:41;;;;;;;5.33;4.83;;;19.40;99.90;;;;;;5041263;28;20474;-82
2022/05/12 01:03:28;;;;;;;4.73;4.33;;;19.50;99.90;;;;;;5027252;28;20450;-82
2022/05/12 01:06:14;;;;;;;5.40;5.00;;;19.40;99.90;;;;;;5039430;28;20497;-82
2022/05/12 01:08:59;;;;;;;5.83;5.27;;;19.40;99.90;;;;;;5037253;28;20438;-82
2022/05/12 01:11:44;;;;;;;5.00;4.67;;;19.40;99.90;;;;;;5044135;28;20386;-82
2022/05/12 01:14:28;;;;;;;7.70;3.93;;;19.50;99.90;;;;;;5055321;28;20419;-81
2022/05/12 01:17:17;;;;;;;5.20;4.20;;;19.40;99.90;;;;;;5045184;28;20398;-82
2022/05/12 01:20:04;;;;;;;5.20;4.70;;;19.30;99.90;;;;;;5040598;28;20436;-82
2022/05/12 01:23:05;;;;;;;6.80;4.80;;;19.20;99.90;;;;;;5047846;28;20398;-79
2022/05/12 01:25:50;;;;;;;4.03;3.73;;;19.20;99.90;;;;;;5056110;28;20387;-82
2022/05/12 01:28:36;;;;;;;4.60;4.20;;;19.30;99.90;;;;;;5056939;28;20402;-79
2022/05/12 01:31:21;;;;;;;5.20;4.30;;;19.40;99.90;;;;;;5053794;28;20394;-82
2022/05/12 01:34:08;;;;;;;4.30;3.90;;;19.20;99.90;;;;;;5052815;28;20390;-82
2022/05/12 01:36:53;;;;;;;5.13;4.50;;;19.10;99.90;;;;;;5053959;28;20841;-82
2022/05/12 01:39:37;;;;;;;4.03;3.70;;;19.10;99.90;;;;;;5039549;28;20383;-80
2022/05/12 01:42:24;;;;;;;3.80;3.50;;;19.20;99.90;;;;;;5037854;28;20543;-81
2022/05/12 01:45:10;;;;;;;10.60;4.60;;;19.30;99.90;;;;;;5039629;28;20839;-80
2022/05/12 01:47:54;;;;;;;5.03;3.60;;;19.10;99.90;;;;;;5040519;28;20383;-82
2022/05/12 01:50:41;;;;;;;4.83;4.33;;;19.10;99.90;;;;;;5053733;28;20403;-79
2022/05/12 01:53:26;;;;;;;5.77;4.10;;;19.10;99.90;;;;;;5038510;28;20418;-80
2022/05/12 01:56:10;;;;;;;4.50;4.20;;;19.20;99.90;;;;;;5039059;28;20438;-79
2022/05/12 01:58:56;;;;;;;3.97;3.67;;;19.20;99.90;;;;;;5050027;28;20787;-81
2022/05/12 02:01:40;;;;;;;3.40;3.20;;;19.30;99.90;;;;;;5034738;28;20488;-82
2022/05/12 02:04:26;;;;;;;6.70;3.60;;;19.20;99.90;;;;;;5039675;28;20472;-82
2022/05/12 02:07:10;;;;;;;4.37;3.57;;;19.20;99.90;;;;;;5038076;28;20450;-82
2022/05/12 02:09:55;;;;;;;6.87;4.20;;;19.20;99.90;;;;;;5038524;28;20403;-82
2022/05/12 02:12:40;;;;;;;4.03;3.73;;;19.30;99.90;;;;;;5038851;28;20737;-82
2022/05/12 02:15:25;;;;;;;3.90;3.47;;;19.10;99.90;;;;;;5039063;28;20387;-80
2022/05/12 02:18:10;;;;;;;4.40;3.10;;;19.10;99.90;;;;;;5037817;28;20430;-82
2022/05/12 02:20:55;;;;;;;4.13;3.73;;;19.10;99.90;;;;;;5042089;28;20442;-81
2022/05/12 02:23:39;;;;;;;8.00;3.97;;;19.10;99.90;;;;;;5042107;28;20391;-82
2022/05/12 02:26:24;;;;;;;3.87;3.47;;;19.00;99.90;;;;;;5027495;28;20727;-82
2022/05/12 02:29:08;;;;;;;4.53;3.97;;;18.80;99.90;;;;;;5027179;28;20410;-82
2022/05/12 02:31:53;;;;;;;10.57;4.27;;;18.90;99.90;;;;;;5042339;28;20501;-82
2022/05/12 02:34:38;;;;;;;4.27;3.83;;;18.80;99.90;;;;;;5041894;28;20399;-82
2022/05/12 02:37:25;;;;;;;3.87;3.57;;;18.90;99.90;;;;;;5042121;28;20387;-82
2022/05/12 02:40:12;;;;;;;5.10;4.60;;;18.80;99.90;;;;;;5027493;28;20390;-81
2022/05/12 02:42:57;;;;;;;3.80;3.50;;;18.80;99.90;;;;;;5041625;28;20919;-82
2022/05/12 02:45:42;;;;;;;3.70;3.40;;;18.70;99.90;;;;;;5041667;28;20379;-82
2022/05/12 02:48:30;;;;;;;3.97;3.67;;;18.60;99.90;;;;;;5041337;28;20386;-82
2022/05/12 02:51:14;;;;;;;5.20;3.93;;;18.60;99.90;;;;;;5026080;28;20406;-82
2022/05/12 02:53:59;;;;;;;4.13;3.73;;;18.50;99.90;;;;;;5026534;28;20375;-82
2022/05/12 02:56:43;;;;;;;6.13;4.03;;;18.50;99.90;;;;;;5042326;28;20429;-82
2022/05/12 02:59:27;;;;;;;5.40;3.60;;;18.50;99.90;;;;;;5041371;28;20378;-81
2022/05/12 03:02:12;;;;;;;5.17;4.07;;;18.40;99.90;;;;;;5041659;28;20534;-82
2022/05/12 03:04:57;;;;;;;5.90;4.73;;;18.40;99.90;;;;;;5041899;28;20491;-82
2022/05/12 03:07:42;;;;;;;4.50;4.10;;;18.30;99.90;;;;;;5042307;28;20474;-82
2022/05/12 03:10:27;;;;;;;4.33;4.00;;;18.30;99.90;;;;;;5028100;28;20374;-81
2022/05/12 03:13:11;;;;;;;3.80;3.50;;;18.40;99.90;;;;;;5045401;28;20382;-81
2022/05/12 03:15:56;;;;;;;6.57;4.40;;;18.30;99.90;;;;;;5026214;28;20425;-82
2022/05/12 03:18:40;;;;;;;11.97;4.50;;;18.20;99.90;;;;;;5041091;28;20442;-81
2022/05/12 03:21:26;;;;;;;5.13;4.73;;;18.20;99.90;;;;;;5025649;28;20993;-81
2022/05/12 03:24:10;;;;;;;3.47;3.20;;;18.30;99.90;;;;;;5041333;28;20521;-81
2022/05/12 03:26:55;;;;;;;3.87;3.57;;;18.30;99.90;;;;;;5040737;28;20464;-81
2022/05/12 03:29:43;;;;;;;4.30;3.73;;;18.50;99.90;;;;;;5040483;28;20503;-81
2022/05/12 03:32:28;;;;;;;5.13;4.13;;;18.60;99.90;;;;;;5025414;28;20434;-82
2022/05/12 03:35:13;;;;;;;11.00;3.70;;;18.70;99.90;;;;;;5041105;28;20390;-82
2022/05/12 03:37:58;;;;;;;4.17;3.87;;;18.70;99.90;;;;;;5041018;28;20383;-82
2022/05/12 03:40:46;;;;;;;4.60;4.17;;;18.70;99.90;;;;;;5040860;28;20446;-82
2022/05/12 03:46:35;;;;;;;3.80;3.43;;;18.80;99.90;;;;;;5034381;28;20425;-82
2022/05/12 03:49:20;;;;;;;3.53;3.23;;;18.70;99.90;;;;;;5032303;28;20403;-81
2022/05/12 03:52:05;;;;;;;3.60;3.30;;;18.90;99.90;;;;;;5040185;28;20903;-82
2022/05/12 03:54:50;;;;;;;4.43;3.40;;;18.80;99.90;;;;;;5040344;28;20430;-82
2022/05/12 03:57:35;;;;;;;3.63;3.33;;;18.90;99.90;;;;;;5026267;28;20391;-82
2022/05/12 04:00:24;;;;;;;7.47;3.73;;;18.80;99.90;;;;;;5052305;28;20401;-82
2022/05/12 04:03:08;;;;;;;5.33;3.57;;;18.80;99.90;;;;;;5062170;28;20478;-83
2022/05/12 04:05:54;;;;;;;3.63;3.43;;;18.90;99.90;;;;;;5042818;28;20445;-80
2022/05/12 04:08:39;;;;;;;5.53;3.60;;;19.00;99.90;;;;;;5071373;28;20440;-81
2022/05/12 04:11:24;;;;;;;3.73;3.07;;;18.90;99.90;;;;;;5055173;28;20410;-82
2022/05/12 04:14:09;;;;;;;4.57;4.10;;;18.90;99.90;;;;;;5063764;28;20433;-82
2022/05/12 04:16:53;;;;;;;3.37;3.07;;;18.80;99.90;;;;;;5062262;28;20389;-83
2022/05/12 04:19:38;;;;;;;6.73;4.10;;;18.80;99.90;;;;;;5060677;28;20409;-82
2022/05/12 04:22:22;;;;;;;3.23;3.00;;;18.80;99.90;;;;;;5060911;28;20464;-82
2022/05/12 04:25:07;;;;;;;4.80;3.67;;;18.90;99.90;;;;;;5061230;28;20413;-82
2022/05/12 04:27:52;;;;;;;3.97;3.20;;;18.90;99.90;;;;;;5060256;28;20386;-82
2022/05/12 04:30:37;;;;;;;4.50;4.10;;;19.00;99.90;;;;;;5054961;28;21014;-82
2022/05/12 04:36:45;;;;;;;3.60;3.30;;;19.00;99.90;;;;;;5038095;28;20479;-82
2022/05/12 04:39:31;;;;;;;3.97;3.57;;;19.00;99.90;;;;;;5032375;28;20436;-82
2022/05/12 04:42:19;;;;;;;3.40;3.10;;;19.10;99.90;;;;;;5016233;28;20562;-82
2022/05/12 04:45:05;;;;;;;10.20;4.07;;;19.10;99.90;;;;;;4985424;28;20640;-83
2022/05/12 04:47:50;;;;;;;6.93;3.60;;;19.10;99.90;;;;;;5003941;28;20671;-83
2022/05/12 04:50:36;;;;;;;3.73;3.43;;;19.10;99.90;;;;;;5016014;28;20456;-82
2022/05/12 04:53:21;;;;;;;3.10;2.80;;;19.00;99.90;;;;;;5017609;28;20510;-83
2022/05/12 04:56:05;;;;;;;3.40;3.20;;;19.20;99.90;;;;;;5011067;28;20466;-83
2022/05/12 04:58:50;;;;;;;4.43;2.80;;;19.20;99.90;;;;;;5016070;28;20484;-82
2022/05/12 05:01:35;;;;;;;3.23;2.93;;;19.10;99.90;;;;;;5003358;28;20475;-83
2022/05/12 05:04:20;;;;;;;3.77;3.43;;;19.10;99.90;;;;;;5005707;28;21052;-82
2022/05/12 05:07:06;;;;;;;3.00;2.80;;;18.90;99.90;;;;;;5043201;28;20480;-82
2022/05/12 05:09:51;;;;;;;4.83;3.27;;;19.00;99.90;;;;;;4985992;28;21004;-82
2022/05/12 05:12:36;;;;;;;2.97;2.60;;;19.10;99.90;;;;;;5000378;28;20451;-82
2022/05/12 05:15:23;;;;;;;6.13;3.27;;;19.10;99.90;;;;;;5016079;28;20455;-82
2022/05/12 05:18:13;;;;;;;3.70;3.40;;;19.20;99.90;;;;;;5021631;28;20530;-82
2022/05/12 05:20:58;;;;;;;3.27;2.93;;;19.00;99.90;;;;;;5037743;28;20481;-83
2022/05/12 05:23:42;;;;;;;3.57;3.27;;;19.10;99.90;;;;;;5018428;28;20431;-83
2022/05/12 05:26:27;;;;;;;4.13;3.70;;;19.10;99.90;;;;;;5025133;28;20437;-82
2022/05/12 05:29:12;;;;;;;6.93;4.03;;;19.30;99.90;;;;;;5033197;28;20426;-82
2022/05/12 05:31:57;;;;;;;5.73;4.13;;;19.40;99.90;;;;;;5020308;28;20505;-83
2022/05/12 05:34:41;;;;;;;6.53;3.50;;;19.40;99.90;;;;;;5001229;28;20414;-84
2022/05/12 05:37:46;;;;;;;3.73;3.00;;;19.40;99.90;;;;;;5025434;28;20492;-83
2022/05/12 05:40:33;;;;;;;4.30;4.00;;;19.50;99.90;;;;;;5009732;28;20451;-81
2022/05/12 05:43:17;;;;;;;4.20;2.97;;;19.30;99.90;;;;;;5024272;28;20508;-83
2022/05/12 05:46:02;;;;;;;2.90;2.70;;;19.40;99.90;;;;;;5021050;28;20462;-83
2022/05/12 05:48:50;;;;;;;3.60;3.30;;;19.50;99.90;;;;;;5013619;28;20444;-82
2022/05/12 05:54:38;;;;;;;3.27;2.97;;;19.60;99.90;;;;;;5024434;28;20430;-83
2022/05/12 05:57:26;;;;;;;3.80;2.90;;;19.70;99.90;;;;;;5013809;28;21044;-82
2022/05/12 06:00:12;;;;;;;3.07;2.87;;;19.70;99.90;;;;;;5009931;28;20528;-83
2022/05/12 06:02:56;;;;;;;3.10;2.90;;;19.90;99.90;;;;;;5004363;28;20503;-83
2022/05/12 06:05:41;;;;;;;4.87;3.10;;;19.80;99.90;;;;;;4986345;28;20519;-83
2022/05/12 06:08:25;;;;;;;3.40;3.10;;;19.90;99.90;;;;;;4998381;28;20502;-83
2022/05/12 06:11:10;;;;;;;3.80;3.17;;;19.90;99.90;;;;;;5027270;28;20507;-82
2022/05/12 06:13:55;;;;;;;2.73;2.53;;;20.00;99.90;;;;;;5035404;28;20492;-82
2022/05/12 06:16:40;;;;;;;2.80;2.60;;;20.10;99.90;;;;;;5046354;28;20434;-83
2022/05/12 06:19:24;;;;;;;4.50;2.83;;;20.10;99.90;;;;;;5041155;28;20491;-82
2022/05/12 06:22:09;;;;;;;3.30;2.63;;;20.10;99.90;;;;;;5041519;28;20923;-82
2022/05/12 06:24:57;;;;;;;2.90;2.70;;;20.20;99.90;;;;;;5054536;28;20457;-82
2022/05/12 06:27:42;;;;;;;2.70;2.50;;;19.90;99.90;;;;;;5054523;28;20973;-84
2022/05/12 06:30:29;;;;;;;3.03;2.80;;;19.90;99.90;;;;;;5036032;28;20453;-84
2022/05/12 06:33:16;;;;;;;6.73;2.50;;;20.20;99.90;;;;;;5025930;28;20486;-84
2022/05/12 06:36:04;;;;;;;2.83;2.63;;;20.20;99.90;;;;;;5044194;28;21000;-83
2022/05/12 06:38:49;;;;;;;3.50;2.47;;;20.30;99.90;;;;;;5058331;28;20485;-83
2022/05/12 06:41:34;;;;;;;4.70;2.60;;;20.30;99.90;;;;;;5042009;28;21028;-84
2022/05/12 06:44:19;;;;;;;6.10;2.33;;;20.40;99.90;;;;;;5049108;28;20441;-84
2022/05/12 06:47:07;;;;;;;3.20;2.20;;;20.40;99.90;;;;;;5030500;28;20451;-82
2022/05/12 06:49:53;;;;;;;3.00;2.70;;;20.50;99.90;;;;;;5027267;28;20607;-83
2022/05/12 06:52:39;;;;;;;5.27;2.73;;;20.40;99.90;;;;;;5042720;28;20474;-82
2022/05/12 06:55:26;;;;;;;2.27;2.07;;;20.50;99.90;;;;;;5030759;28;20781;-81
2022/05/12 06:58:14;;;;;;;2.90;2.60;;;20.50;99.90;;;;;;5038132;28;20635;-83
2022/05/12 07:01:00;;;;;;;3.53;2.83;;;20.50;99.90;;;;;;5054757;28;20537;-83
2022/05/12 07:03:47;;;;;;;5.23;3.00;;;20.50;99.90;;;;;;5027063;28;20502;-82
2022/05/12 07:06:32;;;;;;;3.37;2.73;;;20.60;99.90;;;;;;5042539;28;21006;-83
2022/05/12 07:09:18;;;;;;;7.37;5.03;;;20.70;99.90;;;;;;5033765;28;20490;-81
2022/05/12 07:12:03;;;;;;;5.47;3.97;;;20.70;99.90;;;;;;5045426;28;20446;-82
2022/05/12 07:14:47;;;;;;;5.60;2.67;;;20.70;99.90;;;;;;5024516;28;20422;-83
2022/05/12 07:17:33;;;;;;;3.00;2.77;;;20.70;99.90;;;;;;5043753;28;20947;-82
2022/05/12 07:29:20;;;;;;;4.80;3.27;;;21.30;99.90;;;;;;5043330;28;20459;-81
2022/05/12 07:32:05;;;;;;;7.10;2.90;;;21.10;99.90;;;;;;5029865;28;20434;-80
2022/05/12 07:34:50;;;;;;;5.83;2.87;;;21.10;99.90;;;;;;5015314;28;20950;-82
2022/05/12 07:37:37;;;;;;;4.60;2.70;;;21.20;99.90;;;;;;5015869;28;20556;-82
2022/05/12 07:40:22;;;;;;;2.87;2.53;;;21.20;99.90;;;;;;5021552;28;20433;-82
2022/05/12 07:43:06;;;;;;;5.83;2.53;;;21.20;99.90;;;;;;5046329;28;20516;-82
2022/05/12 07:45:53;;;;;;;4.73;2.47;;;21.20;99.90;;;;;;5033841;28;20430;-80
2022/05/12 07:48:39;;;;;;;3.33;2.50;;;21.30;99.90;;;;;;5015345;28;20457;-79
2022/05/12 07:51:24;;;;;;;5.70;2.57;;;21.40;99.90;;;;;;5049106;28;20454;-83
2022/05/12 07:54:08;;;;;;;3.40;2.70;;;21.40;99.90;;;;;;5039582;28;20429;-81
2022/05/12 07:56:53;;;;;;;3.17;2.43;;;21.50;99.90;;;;;;5033002;28;20473;-82
2022/05/12 07:59:38;;;;;;;5.53;2.43;;;21.50;99.90;;;;;;5020029;28;20884;-79
2022/05/12 08:02:22;;;;;;;4.33;3.17;;;21.40;99.90;;;;;;5013421;28;20451;-82
2022/05/12 08:05:08;;;;;;;3.77;2.23;;;21.60;99.90;;;;;;5020831;28;20795;-83
2022/05/12 08:07:56;;;;;;;3.40;1.87;;;21.70;99.90;;;;;;5012518;28;20430;-81
2022/05/12 08:10:41;;;;;;;3.10;2.90;;;21.60;99.90;;;;;;5007872;28;20469;-81
2022/05/12 08:13:27;;;;;;;2.53;2.10;;;21.70;99.90;;;;;;5029425;28;20792;-82
2022/05/12 08:16:12;;;;;;;3.60;3.07;;;21.60;99.90;;;;;;5026170;28;20427;-81
2022/05/12 08:18:57;;;;;;;4.30;2.27;;;21.70;99.90;;;;;;5035169;28;20518;-81
2022/05/12 08:21:42;;;;;;;4.50;2.80;;;21.60;99.90;;;;;;5025316;28;20461;-81
2022/05/12 08:24:26;;;;;;;4.07;3.70;;;21.80;99.90;;;;;;5021005;28;20942;-81
2022/05/12 08:27:10;;;;;;;3.23;2.53;;;21.80;99.90;;;;;;5035760;28;20426;-79
2022/05/12 08:29:56;;;;;;;4.93;2.50;;;21.90;99.90;;;;;;5027403;28;20434;-85
2022/05/12 08:32:40;;;;;;;9.80;2.57;;;21.80;99.90;;;;;;5033641;28;20426;-83
2022/05/12 08:35:27;;;;;;;5.17;3.17;;;21.70;99.90;;;;;;5030121;28;20447;-84
2022/05/12 08:38:14;;;;;;;3.70;2.33;;;21.70;99.90;;;;;;5028428;28;20435;-85
2022/05/12 08:41:25;;;;;;;3.03;2.77;;;21.70;99.90;;;;;;5031985;28;20561;-83
2022/05/12 08:44:18;;;;;;;3.53;2.80;;;21.80;99.90;;;;;;5052729;28;20462;-83
2022/05/12 08:47:04;;;;;;;4.90;2.37;;;21.80;99.90;;;;;;5038596;28;20515;-85
2022/05/12 08:49:50;;;;;;;2.97;2.13;;;21.70;99.90;;;;;;5042072;28;20439;-83
2022/05/12 08:52:57;;;;;;;4.87;3.40;;;22.00;99.90;;;;;;5042532;28;20439;-84
2022/05/12 08:55:59;;;;;;;4.20;2.90;;;22.00;99.90;;;;;;5015045;28;21141;-85
2022/05/12 08:58:45;;;;;;;2.27;2.07;;;22.00;99.90;;;;;;5027029;28;20530;-83
2022/05/12 09:01:56;;;;;;;3.63;2.60;;;22.00;99.90;;;;;;5041020;28;20477;-83
2022/05/12 09:04:58;;;;;;;3.55;2.15;;;21.90;99.90;;;;;;5033976;28;20456;-83
2022/05/12 09:08:09;;;;;;;3.60;2.10;;;22.10;99.90;;;;;;5019828;28;20211;-85
2022/05/12 09:11:06;;;;;;;4.00;2.90;;;22.40;99.90;;;;;;5028863;28;20497;-84
2022/05/12 09:13:53;;;;;;;4.00;2.83;;;22.60;99.90;;;;;;5039618;28;20933;-84
2022/05/12 09:16:38;;;;;;;3.70;3.40;;;22.50;99.90;;;;;;5012026;28;20488;-84
2022/05/12 09:19:24;;;;;;;4.87;3.60;;;22.40;99.90;;;;;;5035924;28;20474;-84
2022/05/12 09:22:10;;;;;;;3.80;2.20;;;22.30;99.90;;;;;;5020398;28;21176;-84
2022/05/12 09:24:54;;;;;;;2.60;2.10;;;22.20;99.90;;;;;;5023201;28;20545;-83
2022/05/12 09:27:44;;;;;;;6.00;2.33;;;22.10;99.90;;;;;;5034820;28;20493;-84
2022/05/12 09:30:33;;;;;;;2.80;2.07;;;21.90;99.90;;;;;;5038176;28;20451;-84
2022/05/12 09:33:29;;;;;;;5.50;3.03;;;21.90;99.90;;;;;;5020128;28;20435;-84
2022/05/12 09:36:27;;;;;;;2.93;2.10;;;22.10;99.90;;;;;;5008509;28;20440;-84
2022/05/12 09:39:17;;;;;;;2.40;2.20;;;22.40;99.90;;;;;;5029163;28;20435;-84
2022/05/12 09:42:02;;;;;;;5.07;1.90;;;22.40;99.90;;;;;;5016032;28;20454;-84
2022/05/12 09:44:54;;;;;;;1.83;1.73;;;22.40;99.90;;;;;;5015010;28;20475;-84
2022/05/12 09:47:45;;;;;;;2.90;2.57;;;22.20;99.90;;;;;;5032834;28;20494;-82
2022/05/12 09:50:29;;;;;;;2.60;1.87;;;22.60;99.90;;;;;;5014988;28;20466;-84
2022/05/12 09:53:25;;;;;;;4.57;2.00;;;22.40;99.90;;;;;;5012799;28;20435;-82
2022/05/12 09:56:29;;;;;;;3.90;2.17;;;22.50;99.90;;;;;;5006307;28;20532;-81
2022/05/12 09:59:24;;;;;;;5.03;1.90;;;22.60;99.90;;;;;;4996520;28;20811;-82
2022/05/12 10:08:27;;;;;;;3.97;2.30;;;22.60;99.90;;;;;;5028328;28;20476;-79
2022/05/12 10:11:14;;;;;;;1.87;1.70;;;22.60;99.90;;;;;;5042691;28;20434;-80
2022/05/12 10:14:03;;;;;;;2.50;2.30;;;22.50;99.90;;;;;;5029753;28;20502;-81
2022/05/12 10:16:51;;;;;;;5.97;2.20;;;22.60;99.90;;;;;;5025487;28;20459;-80
2022/05/12 10:19:36;;;;;;;3.33;2.67;;;22.60;99.90;;;;;;5056329;28;20453;-80
2022/05/12 10:22:32;;;;;;;2.90;1.90;;;22.50;99.90;;;;;;5043542;28;20452;-81
2022/05/12 10:25:47;;;;;;;2.63;1.90;;;22.60;99.90;;;;;;5019038;28;20446;-82
2022/05/12 10:28:53;;;;;;;3.60;2.13;;;23.00;99.90;;;;;;5063260;28;20421;-79
2022/05/12 10:32:06;;;;;;;2.40;2.20;;;23.20;99.90;;;;;;5047321;28;20448;-82
2022/05/12 10:35:16;;;;;;;2.70;2.50;;;23.00;99.90;;;;;;5046142;28;20449;-80
2022/05/12 10:38:34;;;;;;;6.23;2.87;;;22.70;99.90;;;;;;5045829;28;20461;-82
2022/05/12 10:41:35;;;;;;;3.17;2.10;;;22.50;99.90;;;;;;5071770;28;20542;-83
2022/05/12 10:44:37;;;;;;;5.27;2.33;;;22.20;99.90;;;;;;5061849;28;20455;-81
2022/05/12 10:47:46;;;;;;;2.53;2.33;;;22.20;99.90;;;;;;5047527;28;20425;-82
2022/05/12 10:50:39;;;;;;;3.97;2.10;;;22.60;99.90;;;;;;5072374;28;20481;-81
2022/05/12 10:54:06;;;;;;;8.80;2.10;;;23.20;99.90;;;;;;5043192;28;20513;-81
2022/05/12 10:57:25;;;;;;;2.17;1.90;;;23.70;99.90;;;;;;5050847;28;20470;-81
2022/05/12 11:00:34;;;;;;;3.60;2.67;;;24.20;99.90;;;;;;5034465;28;20450;-79
2022/05/12 11:03:27;;;;;;;2.77;2.00;;;24.30;99.90;;;;;;5017377;28;20524;-81
2022/05/12 11:06:17;;;;;;;2.33;2.13;;;24.20;99.90;;;;;;5037031;28;20485;-81
2022/05/12 11:09:24;;;;;;;2.43;1.93;;;24.40;99.90;;;;;;5057365;28;20442;-83
2022/05/12 11:12:23;;;;;;;2.43;2.20;;;24.50;99.90;;;;;;5047741;28;20465;-82
2022/05/12 11:15:30;;;;;;;4.03;1.90;;;24.80;99.90;;;;;;5018043;28;20458;-81
2022/05/12 11:18:26;;;;;;;1.67;1.57;;;25.50;99.90;;;;;;5008612;28;20479;-80
2022/05/12 11:21:25;;;;;;;2.73;1.70;;;25.10;99.90;;;;;;4995020;28;20485;-80
2022/05/12 11:24:39;;;;;;;1.70;1.60;;;25.30;99.90;;;;;;5012645;28;20470;-78
2022/05/12 11:29:41;;;;;;;2.27;1.50;;;25.40;99.90;;;;;;5029297;28;20449;-81
2022/05/12 11:31:39;;;;;;;3.17;1.63;;;25.00;99.90;;;;;;5030023;28;20450;-82
2022/05/12 11:34:27;;;;;;;3.83;1.60;;;24.70;99.90;;;;;;5021433;28;20446;-83
2022/05/12 11:37:50;;;;;;;4.30;1.40;;;24.40;98.60;;;;;;5007671;28;20486;-85
2022/05/12 11:40:50;;;;;;;1.53;1.43;;;24.40;97.30;;;;;;4995618;28;20438;-83
2022/05/12 11:47:26;;;;;;;1.40;1.30;;;24.40;96.70;;;;;;5055218;28;20454;-82
2022/05/12 11:50:36;;;;;;;3.70;2.07;;;24.20;97.90;;;;;;5031343;28;20532;-82
2022/05/12 11:53:50;;;;;;;1.73;1.63;;;24.70;98.00;;;;;;5045745;28;20499;-81
2022/05/12 11:56:42;;;;;;;3.10;2.30;;;25.50;95.40;;;;;;4984760;28;20568;-79
2022/05/12 11:59:48;;;;;;;3.07;1.63;;;26.40;92.80;;;;;;4981102;28;20542;-78
2022/05/12 12:02:39;;;;;;;3.37;1.83;;;27.00;91.70;;;;;;4973975;28;20536;-83
2022/05/12 12:05:58;;;;;;;2.13;1.63;;;27.70;90.10;;;;;;4983481;28;20539;-84
2022/05/12 12:08:45;;;;;;;5.30;1.97;;;26.70;88.20;;;;;;4974263;28;20809;-81
2022/05/12 12:11:43;;;;;;;2.70;1.47;;;27.30;89.30;;;;;;4977514;28;20475;-83
2022/05/12 12:14:57;;;;;;;2.27;1.77;;;27.30;84.40;;;;;;4988778;28;20480;-81
2022/05/12 12:17:44;;;;;;;1.60;1.50;;;27.40;82.00;;;;;;4989466;28;20467;-83
2022/05/12 12:20:50;;;;;;;1.80;1.70;;;27.70;82.20;;;;;;4962217;28;20790;-83
2022/05/12 12:23:36;;;;;;;2.50;2.00;;;27.50;82.50;;;;;;4993575;28;20479;-82
2022/05/12 12:26:36;;;;;;;2.90;1.77;;;27.60;82.10;;;;;;4996615;28;20430;-82
2022/05/12 12:29:38;;;;;;;1.67;1.57;;;27.00;82.20;;;;;;5057358;28;20608;-82
2022/05/12 12:32:33;;;;;;;7.13;2.00;;;27.90;82.70;;;;;;5050322;28;20433;-80
2022/05/12 12:35:28;;;;;;;1.87;1.77;;;28.10;80.40;;;;;;5041851;28;20448;-81
2022/05/12 12:38:41;;;;;;;2.80;2.27;;;27.70;83.40;;;;;;5049453;28;20488;-81
2022/05/12 12:41:36;;;;;;;2.80;2.03;;;28.00;78.90;;;;;;5035112;28;20591;-82
2022/05/12 12:44:23;;;;;;;2.20;1.60;;;27.50;78.00;;;;;;5041320;28;20424;-80
2022/05/12 12:47:17;;;;;;;2.07;1.97;;;27.40;81.10;;;;;;5028271;28;20453;-80
2022/05/12 12:50:25;;;;;;;2.60;1.93;;;28.50;78.00;;;;;;5051594;28;21022;-80
2022/05/12 12:56:32;;;;;;;1.60;1.50;;;29.10;70.10;;;;;;5062456;28;20503;-80
2022/05/12 12:59:24;;;;;;;2.93;1.23;;;28.60;70.80;;;;;;5058088;28;20433;-81
2022/05/12 13:02:27;;;;;;;2.20;1.70;;;27.70;71.30;;;;;;5066781;28;20456;-82
2022/05/12 13:05:19;;;;;;;2.33;1.87;;;27.40;71.20;;;;;;5057900;28;20484;-80
2022/05/12 13:08:08;;;;;;;2.37;1.83;;;27.90;71.90;;;;;;5011556;28;20578;-81
2022/05/12 13:10:59;;;;;;;1.70;1.60;;;27.20;75.90;;;;;;5059075;28;20412;-80
2022/05/12 13:13:53;;;;;;;1.80;1.70;;;27.90;73.50;;;;;;5046879;28;20529;-78
2022/05/12 13:16:41;;;;;;;2.50;2.00;;;28.30;71.70;;;;;;5038363;28;20422;-79
2022/05/12 13:19:28;;;;;;;2.08;1.88;;;29.10;71.00;;;;;;5040358;28;20513;-79
2022/05/12 13:22:27;;;;;;;2.75;2.55;;;28.40;71.10;;;;;;5031429;28;20588;-79
2022/05/12 13:25:17;;;;;;;4.18;2.13;;;29.70;68.70;;;;;;5015891;28;20265;-82
2022/05/12 13:28:04;;;;;;;6.03;1.77;;;29.30;67.50;;;;;;5059185;28;20714;-80
2022/05/12 13:31:09;;;;;;;1.50;1.40;;;28.70;68.30;;;;;;5016004;28;20185;-80
2022/05/12 13:33:59;;;;;;;2.07;1.60;;;27.80;69.20;;;;;;5061307;28;20188;-80
2022/05/12 13:36:50;;;;;;;1.63;1.53;;;28.20;67.70;;;;;;5059944;28;20187;-83
2022/05/12 13:39:55;;;;;;;2.40;1.77;;;28.60;67.30;;;;;;5033122;28;20457;-80
2022/05/12 13:42:45;;;;;;;2.30;1.97;;;28.70;66.30;;;;;;5042056;28;20473;-80
2022/05/12 13:45:34;;;;;;;2.00;1.80;;;28.50;64.90;;;;;;5043337;28;20430;-84
2022/05/12 13:48:22;;;;;;;2.10;1.90;;;28.90;64.30;;;;;;5022430;28;21008;-83
2022/05/12 13:51:07;;;;;;;2.13;1.90;;;27.80;67.70;;;;;;5004046;28;20924;-83
2022/05/12 13:53:52;;;;;;;4.90;1.50;;;26.90;69.40;;;;;;5017192;28;20490;-83
2022/05/12 13:56:39;;;;;;;3.33;1.70;;;28.30;70.10;;;;;;5003654;28;20870;-84
2022/05/12 13:59:29;;;;;;;5.53;1.67;;;27.20;68.30;;;;;;4964987;28;20512;-81
2022/05/12 14:02:18;;;;;;;4.40;1.77;;;26.50;71.80;;;;;;4994934;28;20878;-82
2022/05/12 14:05:11;;;;;;;3.10;1.40;;;26.80;70.00;;;;;;5001516;28;20485;-83
2022/05/12 14:08:06;;;;;;;1.50;1.40;;;26.70;70.80;;;;;;5004715;28;20470;-83
2022/05/12 14:11:08;;;;;;;1.63;1.53;;;26.70;72.00;;;;;;4991730;28;20498;-83
2022/05/12 14:19:49;;;;;;;2.43;1.83;;;28.20;72.00;;;;;;5019915;28;20430;-82
2022/05/12 14:22:34;;;;;;;2.30;1.50;;;28.70;70.50;;;;;;5018014;28;20483;-83
2022/05/12 14:25:19;;;;;;;2.87;1.63;;;28.30;69.80;;;;;;5026180;28;20471;-83
2022/05/12 14:28:04;;;;;;;2.07;1.77;;;28.10;69.80;;;;;;5048451;28;20420;-83
2022/05/12 14:30:48;;;;;;;1.63;1.53;;;27.90;69.20;;;;;;5064791;28;20579;-83
2022/05/12 14:33:33;;;;;;;1.80;1.67;;;26.60;71.60;;;;;;5059027;28;20465;-83
2022/05/12 14:36:18;;;;;;;2.33;2.13;;;27.10;71.20;;;;;;5028061;28;20424;-81
2022/05/12 14:39:05;;;;;;;2.27;1.50;;;26.80;70.40;;;;;;5051714;28;20412;-82
2022/05/12 14:41:52;;;;;;;3.00;1.70;;;26.90;74.30;;;;;;5035783;28;20468;-85
2022/05/12 14:44:37;;;;;;;2.50;1.60;;;26.50;72.80;;;;;;4997632;28;20445;-83
2022/05/12 14:47:27;;;;;;;1.73;1.53;;;26.90;73.20;;;;;;5013047;28;20434;-82
2022/05/12 14:50:19;;;;;;;4.43;1.90;;;26.80;73.80;;;;;;4999877;28;20438;-83
2022/05/12 14:53:08;;;;;;;3.73;1.93;;;27.00;73.60;;;;;;4919778;29;20527;-83
2022/05/12 14:55:53;;;;;;;1.83;1.70;;;26.70;73.50;;;;;;4899394;29;20456;-80
2022/05/12 14:58:38;;;;;;;3.13;1.63;;;25.30;79.00;;;;;;4918735;29;20460;-82
2022/05/12 15:01:24;;;;;;;2.20;2.00;;;25.00;77.80;;;;;;4895986;29;20415;-83
2022/05/12 15:04:09;;;;;;;1.50;1.40;;;25.80;78.40;;;;;;4919069;29;20233;-83
2022/05/12 15:06:53;;;;;;;2.97;1.63;;;26.20;75.60;;;;;;4919482;29;20558;-83
2022/05/12 15:09:39;;;;;;;2.57;1.77;;;26.10;77.10;;;;;;4893639;29;20435;-81
2022/05/12 15:12:24;;;;;;;3.47;1.80;;;25.80;76.70;;;;;;4917277;29;20459;-83
2022/05/12 15:15:11;;;;;;;2.70;2.00;;;26.20;80.50;;;;;;4933802;29;20437;-83
2022/05/12 15:17:55;;;;;;;2.53;1.73;;;26.00;77.60;;;;;;4951741;28;20425;-82
2022/05/12 15:20:41;;;;;;;1.70;1.60;;;26.20;77.90;;;;;;4949946;29;20466;-82